createdAt,value
2022-08-08T00:02:03.697Z,20.20
2022-08-08T00:04:57.108Z,20.20
2022-08-08T00:07:43.623Z,20.10
2022-08-08T00:10:34.818Z,20.10
2022-08-08T00:13:20.897Z,20.10
2022-08-08T00:16:13.198Z,20.00
2022-08-08T00:19:00.652Z,20.00
2022-08-08T00:21:39.326Z,20.00
2022-08-08T00:24:18.611Z,19.90
2022-08-08T00:27:02.979Z,19.90
2022-08-08T00:30:11.215Z,20.10
2022-08-08T00:32:56.220Z,19.90
2022-08-08T00:35:43.517Z,19.90
2022-08-08T00:38:54.417Z,19.90
2022-08-08T00:42:07.706Z,19.90
2022-08-08T00:44:57.007Z,19.90
2022-08-08T00:48:05.522Z,19.80
2022-08-08T00:51:21.741Z,19.80
2022-08-08T00:54:25.166Z,19.80
2022-08-08T00:57:40.668Z,19.90
2022-08-08T01:00:10.809Z,19.80
2022-08-08T01:04:02.594Z,19.80
2022-08-08T01:06:37.336Z,19.80
2022-08-08T01:09:40.928Z,19.80
2022-08-08T01:12:47.186Z,19.70
2022-08-08T01:15:55.175Z,19.60
2022-08-08T01:19:11.675Z,19.50
2022-08-08T01:22:13.505Z,19.50
2022-08-08T01:25:26.293Z,19.50
2022-08-08T01:28:52.036Z,19.40
2022-08-08T01:32:12.990Z,19.40
2022-08-08T01:35:11.362Z,19.40
2022-08-08T01:38:06.997Z,19.40
2022-08-08T01:40:50.267Z,19.40
2022-08-08T01:43:39.191Z,19.40
2022-08-08T01:46:39.932Z,19.40
2022-08-08T01:49:47.490Z,19.40
2022-08-08T01:53:05.122Z,19.30
2022-08-08T01:56:29.645Z,19.30
2022-08-08T01:59:24.297Z,19.30
2022-08-08T02:02:39.878Z,19.30
2022-08-08T02:05:33.597Z,19.30
2022-08-08T02:08:22.517Z,19.30
2022-08-08T02:11:59.208Z,19.20
2022-08-08T02:15:11.152Z,19.20
2022-08-08T02:18:04.577Z,19.20
2022-08-08T02:21:20.282Z,19.10
2022-08-08T02:24:49.372Z,19.10
2022-08-08T02:27:38.908Z,19.00
2022-08-08T02:30:25.541Z,19.00
2022-08-08T02:34:08.701Z,18.90
2022-08-08T02:36:37.412Z,18.90
2022-08-08T02:39:42.773Z,18.90
2022-08-08T02:44:34.874Z,19.00
2022-08-08T02:46:33.135Z,18.90
2022-08-08T02:49:50.676Z,19.00
2022-08-08T02:52:58.505Z,18.90
2022-08-08T02:56:03.698Z,18.80
2022-08-08T02:59:26.243Z,18.80
2022-08-08T03:02:29.974Z,18.80
2022-08-08T03:05:46.463Z,18.70
2022-08-08T03:08:56.957Z,18.70
2022-08-08T03:12:17.556Z,18.70
2022-08-08T03:16:00.904Z,18.70
2022-08-08T03:18:31.327Z,18.70
2022-08-08T03:20:58.673Z,18.70
2022-08-08T03:23:56.528Z,18.70
2022-08-08T03:26:31.092Z,18.70
2022-08-08T03:29:04.499Z,18.70
2022-08-08T03:32:06.286Z,18.70
2022-08-08T03:34:35.297Z,18.70
2022-08-08T03:37:59.629Z,18.70
2022-08-08T03:40:02.372Z,18.70
2022-08-08T03:42:32.159Z,18.70
2022-08-08T03:44:59.417Z,18.70
2022-08-08T03:47:27.838Z,18.60
2022-08-08T03:50:20.347Z,18.70
2022-08-08T03:52:53.418Z,18.70
2022-08-08T03:55:57.951Z,18.60
2022-08-08T03:58:35.547Z,19.50
2022-08-08T04:01:24.402Z,18.50
2022-08-08T04:03:59.725Z,18.50
2022-08-08T04:06:29.913Z,18.40
2022-08-08T04:09:08.815Z,18.40
2022-08-08T04:11:58.601Z,18.40
2022-08-08T04:14:33.421Z,18.40
2022-08-08T04:17:02.415Z,18.30
2022-08-08T04:19:36.800Z,18.40
2022-08-08T04:22:04.677Z,18.40
2022-08-08T04:24:31.818Z,18.30
2022-08-08T04:27:01.990Z,19.00
2022-08-08T04:29:36.693Z,18.40
2022-08-08T04:32:08.224Z,18.40
2022-08-08T04:34:42.852Z,18.50
2022-08-08T04:37:12.021Z,18.50
2022-08-08T04:40:04.097Z,18.50
2022-08-08T04:42:30.539Z,18.50
2022-08-08T04:45:00.866Z,18.60
2022-08-08T04:47:28.006Z,18.60
2022-08-08T04:50:00.449Z,18.60
2022-08-08T04:52:33.688Z,18.60
2022-08-08T04:55:04.450Z,18.70
2022-08-08T04:57:34.476Z,18.70
2022-08-08T05:00:04.604Z,18.70
2022-08-08T05:02:31.987Z,18.70
2022-08-08T05:05:00.181Z,17.50
2022-08-08T05:07:38.183Z,18.70
2022-08-08T05:10:12.343Z,19.30
2022-08-08T05:12:53.498Z,18.70
2022-08-08T05:16:49.380Z,18.80
2022-08-08T05:18:15.623Z,18.80
2022-08-08T05:20:50.337Z,18.90
2022-08-08T05:23:19.788Z,19.00
2022-08-08T05:25:49.533Z,19.00
2022-08-08T05:28:48.455Z,19.10
2022-08-08T05:31:19.473Z,19.10
2022-08-08T05:33:51.353Z,19.20
2022-08-08T05:36:25.642Z,19.20
2022-08-08T05:38:58.556Z,19.20
2022-08-08T05:41:26.144Z,19.20
2022-08-08T05:44:12.465Z,21.80
2022-08-08T05:46:42.044Z,19.40
2022-08-08T05:49:16.588Z,19.40
2022-08-08T05:51:47.993Z,19.40
2022-08-08T05:54:28.104Z,19.50
2022-08-08T05:57:11.880Z,19.60
2022-08-08T06:00:00.642Z,19.70
2022-08-08T06:02:56.893Z,19.70
2022-08-08T06:05:35.577Z,19.80
2022-08-08T06:08:10.427Z,19.80
2022-08-08T06:10:54.295Z,19.90
2022-08-08T06:13:23.280Z,19.90
2022-08-08T06:15:54.955Z,20.00
2022-08-08T06:18:27.646Z,20.10
2022-08-08T06:20:58.175Z,20.10
2022-08-08T06:23:52.825Z,20.10
2022-08-08T06:26:43.058Z,20.10
2022-08-08T06:29:26.030Z,20.20
2022-08-08T06:32:11.252Z,20.20
2022-08-08T06:34:56.138Z,20.20
2022-08-08T06:37:39.362Z,20.30
2022-08-08T06:40:14.275Z,20.40
2022-08-08T06:42:56.323Z,20.40
2022-08-08T06:45:24.201Z,20.50
2022-08-08T06:48:00.981Z,20.50
2022-08-08T06:50:38.650Z,20.80
2022-08-08T06:53:17.466Z,20.60
2022-08-08T06:56:02.006Z,20.90
2022-08-08T06:58:33.023Z,20.80
2022-08-08T07:01:24.443Z,20.80
2022-08-08T07:04:40.210Z,20.90
2022-08-08T07:06:56.551Z,20.90
2022-08-08T07:09:45.548Z,21.00
2022-08-08T07:12:47.791Z,21.00
2022-08-08T07:15:32.614Z,21.10
2022-08-08T07:18:35.409Z,21.10
2022-08-08T07:21:19.202Z,21.20
2022-08-08T07:24:09.482Z,21.20
2022-08-08T07:26:40.483Z,21.30
2022-08-08T07:29:08.201Z,21.30
2022-08-08T07:31:48.231Z,21.40
2022-08-08T07:34:20.404Z,21.40
2022-08-08T07:36:57.046Z,21.40
2022-08-08T07:39:29.498Z,21.50
2022-08-08T07:42:04.900Z,21.50
2022-08-08T07:44:37.049Z,21.50
2022-08-08T07:47:07.773Z,21.60
2022-08-08T07:49:35.034Z,21.70
2022-08-08T07:52:13.385Z,21.70
2022-08-08T07:55:07.650Z,21.70
2022-08-08T07:58:09.114Z,21.90
2022-08-08T08:00:48.698Z,21.90
2022-08-08T08:03:31.092Z,21.90
2022-08-08T08:06:11.833Z,21.90
2022-08-08T08:08:56.291Z,21.90
2022-08-08T08:11:38.402Z,22.00
2022-08-08T08:14:17.462Z,22.00
2022-08-08T08:16:48.595Z,22.10
2022-08-08T08:19:18.101Z,22.20
2022-08-08T08:21:57.055Z,22.10
2022-08-08T08:24:30.794Z,22.20
2022-08-08T08:27:02.886Z,22.20
2022-08-08T08:29:31.117Z,22.30
2022-08-08T08:31:59.304Z,22.50
2022-08-08T08:34:32.624Z,22.50
2022-08-08T08:37:03.358Z,22.50
2022-08-08T08:39:59.900Z,22.60
2022-08-08T08:42:31.719Z,22.70
2022-08-08T08:45:21.664Z,22.70
2022-08-08T08:47:58.234Z,22.80
2022-08-08T08:50:33.940Z,22.80
2022-08-08T08:53:54.186Z,22.90
2022-08-08T08:56:02.522Z,23.00
2022-08-08T08:58:49.882Z,23.10
2022-08-08T09:01:21.306Z,23.10
2022-08-08T09:03:51.732Z,23.20
2022-08-08T09:06:28.551Z,23.30
2022-08-08T09:09:26.230Z,23.20
2022-08-08T09:12:07.521Z,23.30
2022-08-08T09:14:35.673Z,23.40
2022-08-08T09:17:17.420Z,23.40
2022-08-08T09:21:56.515Z,23.50
2022-08-08T09:22:39.413Z,23.50
2022-08-08T09:25:09.759Z,23.70
2022-08-08T09:27:42.017Z,23.80
2022-08-08T09:30:26.982Z,23.80
2022-08-08T09:33:12.834Z,24.00
2022-08-08T09:35:48.869Z,24.00
2022-08-08T09:38:51.984Z,24.10
2022-08-08T09:42:13.882Z,24.10
2022-08-08T09:44:39.677Z,24.20
2022-08-08T09:47:27.631Z,24.30
2022-08-08T09:50:10.062Z,24.40
2022-08-08T09:52:56.755Z,24.50
2022-08-08T09:55:51.424Z,24.60
2022-08-08T09:58:26.019Z,24.70
2022-08-08T10:01:58.032Z,24.80
2022-08-08T10:04:02.330Z,24.90
2022-08-08T10:06:32.316Z,24.90
2022-08-08T10:09:00.266Z,25.10
2022-08-08T10:12:26.715Z,25.20
2022-08-08T10:14:34.972Z,25.30
2022-08-08T10:17:56.526Z,25.40
2022-08-08T10:20:01.311Z,25.60
2022-08-08T10:22:33.867Z,25.80
2022-08-08T10:25:07.174Z,26.00
2022-08-08T10:27:44.143Z,26.10
2022-08-08T10:30:16.394Z,26.30
2022-08-08T10:33:00.904Z,26.50
2022-08-08T10:36:21.049Z,26.70
2022-08-08T10:38:20.306Z,27.00
2022-08-08T10:40:53.368Z,27.10
2022-08-08T10:43:22.917Z,27.20
2022-08-08T10:45:56.137Z,27.20
2022-08-08T10:48:58.834Z,27.30
2022-08-08T10:51:47.033Z,27.30
2022-08-08T10:54:25.037Z,27.40
2022-08-08T10:57:08.901Z,27.40
2022-08-08T10:59:39.942Z,27.60
2022-08-08T11:02:09.326Z,27.80
2022-08-08T11:04:53.340Z,28.00
2022-08-08T11:08:31.566Z,28.30
2022-08-08T11:10:28.959Z,28.60
2022-08-08T11:13:28.693Z,28.80
2022-08-08T11:15:52.453Z,29.00
2022-08-08T11:18:30.298Z,29.30
2022-08-08T11:21:10.051Z,29.50
2022-08-08T11:23:42.594Z,29.70
2022-08-08T11:26:19.265Z,29.80
2022-08-08T11:28:47.848Z,29.90
2022-08-08T11:31:20.852Z,29.90
2022-08-08T11:34:03.120Z,29.90
2022-08-08T11:36:36.301Z,29.90
2022-08-08T11:39:12.636Z,30.00
2022-08-08T11:41:45.291Z,30.10
2022-08-08T11:44:15.077Z,30.20
2022-08-08T11:46:42.752Z,30.20
2022-08-08T11:49:14.087Z,30.10
2022-08-08T11:51:50.292Z,30.20
2022-08-08T11:54:34.422Z,30.30
2022-08-08T11:57:14.673Z,30.20
2022-08-08T12:00:02.655Z,30.10
2022-08-08T12:02:47.087Z,30.00
2022-08-08T12:05:14.497Z,29.90
2022-08-08T12:07:51.005Z,29.80
2022-08-08T12:10:26.252Z,29.50
2022-08-08T12:13:14.142Z,29.30
2022-08-08T12:15:49.081Z,29.00
2022-08-08T12:18:26.655Z,28.70
2022-08-08T12:20:56.435Z,28.50
2022-08-08T12:23:43.129Z,28.20
2022-08-08T12:26:45.922Z,28.00
2022-08-08T12:29:40.640Z,27.80
2022-08-08T12:32:22.361Z,27.60
2022-08-08T12:35:17.425Z,27.50
2022-08-08T12:38:02.418Z,27.40
2022-08-08T12:40:54.162Z,27.30
2022-08-08T12:43:47.911Z,27.30
2022-08-08T12:46:25.122Z,27.30
2022-08-08T12:49:20.766Z,27.20
2022-08-08T12:51:59.319Z,27.20
2022-08-08T12:54:33.438Z,27.00
2022-08-08T12:57:24.436Z,26.90
2022-08-08T13:00:04.729Z,26.80
2022-08-08T13:02:52.575Z,26.70
2022-08-08T13:05:27.117Z,26.70
2022-08-08T13:08:21.926Z,26.60
2022-08-08T13:10:58.139Z,26.60
2022-08-08T13:13:37.524Z,26.60
2022-08-08T13:16:25.551Z,26.70
2022-08-08T13:19:06.617Z,26.80
2022-08-08T13:21:53.159Z,27.00
2022-08-08T13:24:42.201Z,27.10
2022-08-08T13:27:19.995Z,27.20
2022-08-08T13:30:00.643Z,27.20
2022-08-08T13:32:30.564Z,27.10
2022-08-08T13:34:59.824Z,27.00
2022-08-08T13:38:05.570Z,26.80
2022-08-08T13:40:17.912Z,26.70
2022-08-08T13:42:54.843Z,26.60
2022-08-08T13:45:23.983Z,26.60
2022-08-08T13:48:03.028Z,26.50
2022-08-08T13:50:44.085Z,27.00
2022-08-08T13:53:36.238Z,26.40
2022-08-08T13:56:11.602Z,26.30
2022-08-08T13:58:57.646Z,26.30
2022-08-08T14:01:41.857Z,26.20
2022-08-08T14:04:24.277Z,26.20
2022-08-08T14:06:59.819Z,26.10
2022-08-08T14:10:02.405Z,26.00
2022-08-08T14:12:30.730Z,25.90
2022-08-08T14:14:59.850Z,25.90
2022-08-08T14:17:57.963Z,25.80
2022-08-08T14:20:15.735Z,25.80
2022-08-08T14:23:21.184Z,25.70
2022-08-08T14:26:11.199Z,25.70
2022-08-08T14:28:39.842Z,25.60
2022-08-08T14:31:10.291Z,25.60
2022-08-08T14:33:39.073Z,25.50
2022-08-08T14:36:11.562Z,25.50
2022-08-08T14:38:52.689Z,25.40
2022-08-08T14:41:53.343Z,22.80
2022-08-08T14:44:19.609Z,25.30
2022-08-08T14:47:01.233Z,25.10
2022-08-08T14:49:51.550Z,25.00
2022-08-08T14:52:21.867Z,24.80
2022-08-08T14:54:50.076Z,24.70
2022-08-08T14:57:17.321Z,24.50
2022-08-08T14:59:50.907Z,24.40
2022-08-08T15:02:25.649Z,24.30
2022-08-08T15:05:08.331Z,24.20
2022-08-08T15:07:40.527Z,24.20
2022-08-08T15:10:11.587Z,24.10
2022-08-08T15:12:41.326Z,24.00
2022-08-08T15:15:10.137Z,24.00
2022-08-08T15:17:39.575Z,24.00
2022-08-08T15:20:14.045Z,24.00
2022-08-08T15:22:44.562Z,23.90
2022-08-08T15:25:17.337Z,23.80
2022-08-08T15:28:03.426Z,23.80
2022-08-08T15:30:32.395Z,23.70
2022-08-08T15:32:59.660Z,23.70
2022-08-08T15:35:27.378Z,23.70
2022-08-08T15:37:56.850Z,23.70
2022-08-08T15:40:28.333Z,23.60
2022-08-08T15:42:57.823Z,23.60
2022-08-08T15:45:29.942Z,23.50
2022-08-08T15:48:15.485Z,23.50
2022-08-08T15:51:01.267Z,23.50
2022-08-08T15:53:40.584Z,23.40
2022-08-08T15:56:16.647Z,23.40
2022-08-08T15:58:48.542Z,23.40
2022-08-08T16:01:16.682Z,23.40
2022-08-08T16:03:48.007Z,24.10
2022-08-08T16:06:28.244Z,23.40
2022-08-08T16:13:03.063Z,23.30
2022-08-08T16:13:05.741Z,23.30
2022-08-08T16:14:35.944Z,23.20
2022-08-08T16:17:05.794Z,23.20
2022-08-08T16:19:59.588Z,23.10
2022-08-08T16:22:29.010Z,23.10
2022-08-08T16:24:58.379Z,23.10
2022-08-08T16:27:25.563Z,23.10
2022-08-08T16:30:08.139Z,23.00
2022-08-08T16:32:36.319Z,23.00
2022-08-08T16:35:03.842Z,23.00
2022-08-08T16:37:31.321Z,23.00
2022-08-08T16:40:02.225Z,23.00
2022-08-08T16:42:30.461Z,22.90
2022-08-08T16:44:59.053Z,22.90
2022-08-08T16:47:41.445Z,22.90
2022-08-08T16:50:13.977Z,22.90
2022-08-08T16:55:06.391Z,22.90
2022-08-08T16:55:55.628Z,22.90
2022-08-08T16:58:25.692Z,22.90
2022-08-08T17:00:54.601Z,22.90
2022-08-08T17:03:24.731Z,23.00
2022-08-08T17:05:53.821Z,23.00
2022-08-08T17:08:23.731Z,23.00
2022-08-08T17:10:57.787Z,23.00
2022-08-08T17:13:27.593Z,23.00
2022-08-08T17:16:15.079Z,23.00
2022-08-08T17:18:42.731Z,23.00
2022-08-08T17:21:12.648Z,22.90
2022-08-08T17:24:00.774Z,22.90
2022-08-08T17:26:29.418Z,22.90
2022-08-08T17:28:58.583Z,22.90
2022-08-08T17:31:45.419Z,22.90
2022-08-08T17:34:49.669Z,22.90
2022-08-08T17:37:06.792Z,22.90
2022-08-08T17:40:05.106Z,22.90
2022-08-08T17:42:25.343Z,22.90
2022-08-08T17:44:53.010Z,22.80
2022-08-08T17:47:23.662Z,22.90
2022-08-08T17:49:53.005Z,22.80
2022-08-08T17:52:28.173Z,22.80
2022-08-08T17:54:56.429Z,22.80
2022-08-08T17:57:28.995Z,22.80
2022-08-08T18:00:10.318Z,22.70
2022-08-08T18:03:04.884Z,22.60
2022-08-08T18:05:48.341Z,22.60
2022-08-08T18:08:24.888Z,22.60
2022-08-08T18:11:17.183Z,22.50
2022-08-08T18:13:48.128Z,22.50
2022-08-08T18:16:17.031Z,22.40
2022-08-08T18:18:56.259Z,22.40
2022-08-08T18:22:00.198Z,22.40
2022-08-08T18:24:21.535Z,22.40
2022-08-08T18:26:53.856Z,22.40
2022-08-08T18:29:34.671Z,22.30
2022-08-08T18:32:08.572Z,22.30
2022-08-08T18:34:37.847Z,22.30
2022-08-08T18:37:08.444Z,22.30
2022-08-08T18:39:41.319Z,22.20
2022-08-08T18:42:16.103Z,22.40
2022-08-08T18:44:54.915Z,22.20
2022-08-08T18:47:28.079Z,22.20
2022-08-08T18:50:00.223Z,22.20
2022-08-08T18:52:30.317Z,22.10
2022-08-08T18:54:59.781Z,22.10
2022-08-08T18:57:42.060Z,22.00
2022-08-08T19:00:20.357Z,22.00
2022-08-08T19:02:56.690Z,21.90
2022-08-08T19:05:37.323Z,21.90
2022-08-08T19:08:25.062Z,21.90
2022-08-08T19:10:59.864Z,21.80
2022-08-08T19:13:38.553Z,21.80
2022-08-08T19:16:20.173Z,21.80
2022-08-08T19:18:56.012Z,21.80
2022-08-08T19:21:32.878Z,21.80
2022-08-08T19:24:05.645Z,21.80
2022-08-08T19:26:37.797Z,21.70
2022-08-08T19:29:06.575Z,21.70
2022-08-08T19:31:35.920Z,21.70
2022-08-08T19:34:29.669Z,21.70
2022-08-08T19:36:59.278Z,21.70
2022-08-08T19:39:35.405Z,21.70
2022-08-08T19:42:05.259Z,21.70
2022-08-08T19:44:43.348Z,21.70
2022-08-08T19:47:15.654Z,21.70
2022-08-08T19:49:59.307Z,21.60
2022-08-08T19:52:34.731Z,21.60
2022-08-08T19:55:09.295Z,21.60
2022-08-08T19:57:38.135Z,21.50
2022-08-08T20:00:11.604Z,21.50
2022-08-08T20:02:56.746Z,21.50
2022-08-08T20:06:12.924Z,21.50
2022-08-08T20:08:29.150Z,21.40
2022-08-08T20:11:00.744Z,21.40
2022-08-08T20:14:32.141Z,21.40
2022-08-08T20:16:15.856Z,21.40
2022-08-08T20:18:52.222Z,21.40
2022-08-08T20:21:23.319Z,21.40
2022-08-08T20:23:57.753Z,21.30
2022-08-08T20:26:30.312Z,21.30
2022-08-08T20:29:03.871Z,21.20
2022-08-08T20:32:06.789Z,21.20
2022-08-08T20:34:29.621Z,21.20
2022-08-08T20:37:00.531Z,21.10
2022-08-08T20:39:33.826Z,21.10
2022-08-08T20:42:09.270Z,21.10
2022-08-08T20:44:37.783Z,21.10
2022-08-08T20:47:05.406Z,21.10
2022-08-08T20:49:46.865Z,21.10
2022-08-08T20:52:15.501Z,21.10
2022-08-08T20:54:44.210Z,21.10
2022-08-08T20:57:19.192Z,21.00
2022-08-08T20:59:48.723Z,21.00
2022-08-08T21:02:25.922Z,21.00
2022-08-08T21:05:00.538Z,21.00
2022-08-08T21:07:47.804Z,20.90
2022-08-08T21:10:17.716Z,20.90
2022-08-08T21:12:52.897Z,20.90
2022-08-08T21:16:06.232Z,20.90
2022-08-08T21:18:09.678Z,20.90
2022-08-08T21:20:39.614Z,20.80
2022-08-08T21:23:10.019Z,20.80
2022-08-08T21:25:40.291Z,20.80
2022-08-08T21:28:15.601Z,20.80
2022-08-08T21:30:45.305Z,22.70
2022-08-08T21:33:20.591Z,20.70
2022-08-08T21:36:14.784Z,21.00
2022-08-08T21:38:35.170Z,21.10
2022-08-08T21:41:02.214Z,20.60
2022-08-08T21:43:33.259Z,20.50
2022-08-08T21:48:05.107Z,22.70
2022-08-08T21:48:57.919Z,20.40
2022-08-08T21:54:34.462Z,20.50
2022-08-08T21:54:53.305Z,20.70
2022-08-08T21:57:07.176Z,20.30
2022-08-08T22:00:01.663Z,20.20
2022-08-08T22:02:23.463Z,20.20
2022-08-08T22:04:55.652Z,20.30
2022-08-08T22:07:34.732Z,20.40
2022-08-08T22:10:18.225Z,20.20
2022-08-08T22:13:17.896Z,20.20
2022-08-08T22:15:59.212Z,20.20
2022-08-08T22:18:30.614Z,20.10
2022-08-08T22:21:14.571Z,20.10
2022-08-08T22:23:51.651Z,20.10
2022-08-08T22:26:28.950Z,20.10
2022-08-08T22:29:14.853Z,20.10
2022-08-08T22:32:01.644Z,20.00
2022-08-08T22:34:39.191Z,20.00
2022-08-08T22:37:15.147Z,20.00
2022-08-08T22:40:00.011Z,20.00
2022-08-08T22:42:34.217Z,19.90
2022-08-08T22:45:12.904Z,19.80
2022-08-08T22:47:49.008Z,19.80
2022-08-08T22:50:26.151Z,19.80
2022-08-08T22:54:31.844Z,19.80
2022-08-08T22:55:58.628Z,19.80
2022-08-08T22:58:34.235Z,20.20
2022-08-08T23:02:03.002Z,19.70
2022-08-08T23:03:57.462Z,19.70
2022-08-08T23:06:27.342Z,19.70
2022-08-08T23:08:58.970Z,19.60
2022-08-08T23:12:17.970Z,19.60
2022-08-08T23:14:21.358Z,19.50
2022-08-08T23:16:57.578Z,19.50
2022-08-08T23:19:30.902Z,19.40
2022-08-08T23:22:04.574Z,19.40
2022-08-08T23:24:36.712Z,19.40
2022-08-08T23:27:10.273Z,19.30
2022-08-08T23:29:38.062Z,19.50
2022-08-08T23:32:06.360Z,19.20
2022-08-08T23:34:38.278Z,19.20
2022-08-08T23:37:05.467Z,19.20
2022-08-08T23:39:41.778Z,19.20
2022-08-08T23:42:16.562Z,19.20
2022-08-08T23:44:43.534Z,19.20
2022-08-08T23:49:02.533Z,19.20
2022-08-08T23:50:03.350Z,19.20
2022-08-08T23:52:33.393Z,19.10
2022-08-08T23:55:13.953Z,19.00
2022-08-08T23:57:52.514Z,19.00
